sensor_id;sensor_type;location;lat;lon;timestamp;temperature;humidity
16102;DHT22;56411;52.964;10.540;2024-01-16T00:00:26;0.20;99.90
16102;DHT22;56411;52.964;10.540;2024-01-16T00:02:53;0.20;99.90
16102;DHT22;56411;52.964;10.540;2024-01-16T00:05:22;0.20;99.90
16102;DHT22;56411;52.964;10.540;2024-01-16T00:07:49;0.10;99.90
16102;DHT22;56411;52.964;10.540;2024-01-16T00:10:16;0.20;99.90
16102;DHT22;56411;52.964;10.540;2024-01-16T00:12:43;0.10;99.90
16102;DHT22;56411;52.964;10.540;2024-01-16T00:15:10;0.10;99.90
16102;DHT22;56411;52.964;10.540;2024-01-16T00:17:37;0.10;99.90
16102;DHT22;56411;52.964;10.540;2024-01-16T00:20:05;0.10;99.90
16102;DHT22;56411;52.964;10.540;2024-01-16T00:22:34;0.00;99.90
16102;DHT22;56411;52.964;10.540;2024-01-16T00:25:01;0.00;99.90
16102;DHT22;56411;52.964;10.540;2024-01-16T00:27:29;0.00;99.90
16102;DHT22;56411;52.964;10.540;2024-01-16T00:29:56;-0.10;99.90
16102;DHT22;56411;52.964;10.540;2024-01-16T00:32:23;-0.10;99.90
16102;DHT22;56411;52.964;10.540;2024-01-16T00:34:50;-0.20;99.90
16102;DHT22;56411;52.964;10.540;2024-01-16T00:37:18;-0.20;99.90
16102;DHT22;56411;52.964;10.540;2024-01-16T00:39:47;-0.30;99.90
16102;DHT22;56411;52.964;10.540;2024-01-16T00:42:14;-0.30;99.90
16102;DHT22;56411;52.964;10.540;2024-01-16T00:44:41;-0.30;99.90
16102;DHT22;56411;52.964;10.540;2024-01-16T00:47:08;-0.40;99.90
16102;DHT22;56411;52.964;10.540;2024-01-16T00:49:35;-0.40;99.90
16102;DHT22;56411;52.964;10.540;2024-01-16T00:52:03;-0.40;99.90
16102;DHT22;56411;52.964;10.540;2024-01-16T00:54:32;-0.40;99.90
16102;DHT22;56411;52.964;10.540;2024-01-16T00:57:00;-0.50;99.90
16102;DHT22;56411;52.964;10.540;2024-01-16T00:59:27;-0.50;99.90
16102;DHT22;56411;52.964;10.540;2024-01-16T01:01:54;-0.60;99.90
16102;DHT22;56411;52.964;10.540;2024-01-16T01:04:22;-0.60;99.90
16102;DHT22;56411;52.964;10.540;2024-01-16T01:06:49;-0.60;99.90
16102;DHT22;56411;52.964;10.540;2024-01-16T01:09:16;-0.70;99.90
16102;DHT22;56411;52.964;10.540;2024-01-16T01:11:43;-0.70;99.90
16102;DHT22;56411;52.964;10.540;2024-01-16T01:14:12;-0.70;99.90
16102;DHT22;56411;52.964;10.540;2024-01-16T01:16:39;-0.70;99.90
16102;DHT22;56411;52.964;10.540;2024-01-16T01:19:07;-0.70;99.90
16102;DHT22;56411;52.964;10.540;2024-01-16T01:21:35;-0.70;99.90
16102;DHT22;56411;52.964;10.540;2024-01-16T01:24:02;-0.70;99.90
16102;DHT22;56411;52.964;10.540;2024-01-16T01:26:30;-0.70;99.90
16102;DHT22;56411;52.964;10.540;2024-01-16T01:28:57;-0.70;99.90
16102;DHT22;56411;52.964;10.540;2024-01-16T01:31:26;-0.70;99.90
16102;DHT22;56411;52.964;10.540;2024-01-16T01:33:53;-0.70;99.90
16102;DHT22;56411;52.964;10.540;2024-01-16T01:36:20;-0.70;99.90
16102;DHT22;56411;52.964;10.540;2024-01-16T01:38:47;-0.70;99.90
16102;DHT22;56411;52.964;10.540;2024-01-16T01:41:14;-0.70;99.90
16102;DHT22;56411;52.964;10.540;2024-01-16T01:43:41;-0.70;99.90
16102;DHT22;56411;52.964;10.540;2024-01-16T01:46:10;-0.80;99.90
16102;DHT22;56411;52.964;10.540;2024-01-16T01:48:40;-0.70;99.90
16102;DHT22;56411;52.964;10.540;2024-01-16T01:51:08;-0.80;99.90
16102;DHT22;56411;52.964;10.540;2024-01-16T01:53:36;-0.80;99.90
16102;DHT22;56411;52.964;10.540;2024-01-16T01:56:06;-0.80;99.90
16102;DHT22;56411;52.964;10.540;2024-01-16T01:58:34;-0.90;99.90
16102;DHT22;56411;52.964;10.540;2024-01-16T02:01:04;-0.90;99.90
16102;DHT22;56411;52.964;10.540;2024-01-16T02:03:35;-0.90;99.90
16102;DHT22;56411;52.964;10.540;2024-01-16T02:06:07;-0.90;99.90
16102;DHT22;56411;52.964;10.540;2024-01-16T02:08:34;-1.00;99.90
16102;DHT22;56411;52.964;10.540;2024-01-16T02:11:02;-1.00;99.90
16102;DHT22;56411;52.964;10.540;2024-01-16T02:13:29;-1.10;99.90
16102;DHT22;56411;52.964;10.540;2024-01-16T02:15:56;-1.10;99.90
16102;DHT22;56411;52.964;10.540;2024-01-16T02:18:23;-1.20;99.90
16102;DHT22;56411;52.964;10.540;2024-01-16T02:20:51;-1.20;99.90
16102;DHT22;56411;52.964;10.540;2024-01-16T02:23:25;-1.30;99.90
16102;DHT22;56411;52.964;10.540;2024-01-16T02:25:53;-1.30;99.90
16102;DHT22;56411;52.964;10.540;2024-01-16T02:28:21;-1.30;99.90
16102;DHT22;56411;52.964;10.540;2024-01-16T02:30:48;-1.30;99.90
16102;DHT22;56411;52.964;10.540;2024-01-16T02:33:15;-1.30;99.90
16102;DHT22;56411;52.964;10.540;2024-01-16T02:35:42;-1.40;99.90
16102;DHT22;56411;52.964;10.540;2024-01-16T02:38:09;-1.40;99.90
16102;DHT22;56411;52.964;10.540;2024-01-16T02:40:38;-1.40;99.90
16102;DHT22;56411;52.964;10.540;2024-01-16T02:43:05;-1.40;99.90
16102;DHT22;56411;52.964;10.540;2024-01-16T02:45:32;-1.40;99.90
16102;DHT22;56411;52.964;10.540;2024-01-16T02:47:59;-1.40;99.90
16102;DHT22;56411;52.964;10.540;2024-01-16T02:50:27;-1.40;99.90
16102;DHT22;56411;52.964;10.540;2024-01-16T02:52:54;-1.50;99.90
16102;DHT22;56411;52.964;10.540;2024-01-16T02:55:21;-1.40;99.90
16102;DHT22;56411;52.964;10.540;2024-01-16T02:57:49;-1.40;99.90
16102;DHT22;56411;52.964;10.540;2024-01-16T03:00:17;-1.40;99.90
16102;DHT22;56411;52.964;10.540;2024-01-16T03:02:44;-1.30;99.90
16102;DHT22;56411;52.964;10.540;2024-01-16T03:05:11;-1.20;99.90
16102;DHT22;56411;52.964;10.540;2024-01-16T03:07:39;-1.20;99.90
16102;DHT22;56411;52.964;10.540;2024-01-16T03:10:06;-1.20;99.90
16102;DHT22;56411;52.964;10.540;2024-01-16T03:12:33;-1.20;99.90
16102;DHT22;56411;52.964;10.540;2024-01-16T03:15:03;-1.30;99.90
16102;DHT22;56411;52.964;10.540;2024-01-16T03:17:31;-1.30;99.90
16102;DHT22;56411;52.964;10.540;2024-01-16T03:19:59;-1.30;99.90
16102;DHT22;56411;52.964;10.540;2024-01-16T03:22:26;-1.30;99.90
16102;DHT22;56411;52.964;10.540;2024-01-16T03:24:54;-1.30;99.90
16102;DHT22;56411;52.964;10.540;2024-01-16T03:27:21;-1.30;99.90
16102;DHT22;56411;52.964;10.540;2024-01-16T03:29:48;-1.40;99.90
16102;DHT22;56411;52.964;10.540;2024-01-16T03:32:17;-1.30;99.90
16102;DHT22;56411;52.964;10.540;2024-01-16T03:34:44;-1.40;99.90
16102;DHT22;56411;52.964;10.540;2024-01-16T03:37:12;-1.30;99.90
16102;DHT22;56411;52.964;10.540;2024-01-16T03:39:39;-1.30;99.90
16102;DHT22;56411;52.964;10.540;2024-01-16T03:42:06;-1.40;99.90
16102;DHT22;56411;52.964;10.540;2024-01-16T03:44:38;-1.40;99.90
16102;DHT22;56411;52.964;10.540;2024-01-16T03:47:06;-1.40;99.90
16102;DHT22;56411;52.964;10.540;2024-01-16T03:49:34;-1.40;99.90
16102;DHT22;56411;52.964;10.540;2024-01-16T03:52:02;-1.40;99.90
16102;DHT22;56411;52.964;10.540;2024-01-16T03:54:30;-1.30;99.90
16102;DHT22;56411;52.964;10.540;2024-01-16T03:56:57;-1.40;99.90
16102;DHT22;56411;52.964;10.540;2024-01-16T03:59:24;-1.40;99.90
16102;DHT22;56411;52.964;10.540;2024-01-16T04:01:51;-1.30;99.90
16102;DHT22;56411;52.964;10.540;2024-01-16T04:04:18;-1.30;99.90
16102;DHT22;56411;52.964;10.540;2024-01-16T04:06:47;-1.30;99.90
16102;DHT22;56411;52.964;10.540;2024-01-16T04:09:14;-1.30;99.90
16102;DHT22;56411;52.964;10.540;2024-01-16T04:11:42;-1.30;99.90
16102;DHT22;56411;52.964;10.540;2024-01-16T04:14:09;-1.30;99.90
16102;DHT22;56411;52.964;10.540;2024-01-16T04:16:36;-1.20;99.90
16102;DHT22;56411;52.964;10.540;2024-01-16T04:19:04;-1.20;99.90
16102;DHT22;56411;52.964;10.540;2024-01-16T04:21:31;-1.20;99.90
16102;DHT22;56411;52.964;10.540;2024-01-16T04:24:00;-1.20;99.90
16102;DHT22;56411;52.964;10.540;2024-01-16T04:26:27;-1.20;99.90
16102;DHT22;56411;52.964;10.540;2024-01-16T04:28:55;-1.20;99.90
16102;DHT22;56411;52.964;10.540;2024-01-16T04:31:22;-1.20;99.90
16102;DHT22;56411;52.964;10.540;2024-01-16T04:33:49;-1.20;99.90
16102;DHT22;56411;52.964;10.540;2024-01-16T04:36:16;-1.20;99.90
16102;DHT22;56411;52.964;10.540;2024-01-16T04:38:43;-1.20;99.90
16102;DHT22;56411;52.964;10.540;2024-01-16T04:41:12;-1.20;99.90
16102;DHT22;56411;52.964;10.540;2024-01-16T04:43:39;-1.10;99.90
16102;DHT22;56411;52.964;10.540;2024-01-16T04:46:06;-1.10;99.90
16102;DHT22;56411;52.964;10.540;2024-01-16T04:48:34;-1.10;99.90
16102;DHT22;56411;52.964;10.540;2024-01-16T04:51:01;-1.10;99.90
16102;DHT22;56411;52.964;10.540;2024-01-16T04:53:30;-1.10;99.90
16102;DHT22;56411;52.964;10.540;2024-01-16T04:56:05;-1.10;99.90
16102;DHT22;56411;52.964;10.540;2024-01-16T04:58:38;-1.10;99.90
16102;DHT22;56411;52.964;10.540;2024-01-16T05:01:19;-1.10;99.90
16102;DHT22;56411;52.964;10.540;2024-01-16T05:03:47;-1.10;99.90
16102;DHT22;56411;52.964;10.540;2024-01-16T05:06:15;-1.10;99.90
16102;DHT22;56411;52.964;10.540;2024-01-16T05:08:42;-1.10;99.90
16102;DHT22;56411;52.964;10.540;2024-01-16T05:11:09;-1.10;99.90
16102;DHT22;56411;52.964;10.540;2024-01-16T05:13:40;-1.10;99.90
16102;DHT22;56411;52.964;10.540;2024-01-16T05:16:11;-1.10;99.90
16102;DHT22;56411;52.964;10.540;2024-01-16T05:18:44;-1.00;99.90
16102;DHT22;56411;52.964;10.540;2024-01-16T05:21:12;-1.00;99.90
16102;DHT22;56411;52.964;10.540;2024-01-16T05:23:40;-1.00;99.90
16102;DHT22;56411;52.964;10.540;2024-01-16T05:26:07;-1.00;99.90
16102;DHT22;56411;52.964;10.540;2024-01-16T05:28:44;-1.00;99.90
16102;DHT22;56411;52.964;10.540;2024-01-16T05:31:43;-1.00;99.90
16102;DHT22;56411;52.964;10.540;2024-01-16T05:38:06;-1.00;99.90
16102;DHT22;56411;52.964;10.540;2024-01-16T05:51:35;-0.90;99.90
16102;DHT22;56411;52.964;10.540;2024-01-16T05:58:18;-0.80;99.90
16102;DHT22;56411;52.964;10.540;2024-01-16T06:00:49;-0.90;99.90
16102;DHT22;56411;52.964;10.540;2024-01-16T06:09:51;-0.80;99.90
16102;DHT22;56411;52.964;10.540;2024-01-16T06:12:22;-0.80;99.90
16102;DHT22;56411;52.964;10.540;2024-01-16T06:15:07;-0.80;99.90
16102;DHT22;56411;52.964;10.540;2024-01-16T06:17:40;-0.80;99.90
16102;DHT22;56411;52.964;10.540;2024-01-16T06:20:11;-0.80;99.90
16102;DHT22;56411;52.964;10.540;2024-01-16T06:26:12;-0.90;99.90
16102;DHT22;56411;52.964;10.540;2024-01-16T06:28:39;-0.80;99.90
16102;DHT22;56411;52.964;10.540;2024-01-16T06:31:12;-0.80;99.90
16102;DHT22;56411;52.964;10.540;2024-01-16T06:33:42;-0.80;99.90
16102;DHT22;56411;52.964;10.540;2024-01-16T06:36:12;-0.80;99.90
16102;DHT22;56411;52.964;10.540;2024-01-16T06:38:39;-0.80;99.90
16102;DHT22;56411;52.964;10.540;2024-01-16T06:41:13;-0.80;99.90
16102;DHT22;56411;52.964;10.540;2024-01-16T06:43:41;-0.80;99.90
16102;DHT22;56411;52.964;10.540;2024-01-16T06:46:12;-0.80;99.90
16102;DHT22;56411;52.964;10.540;2024-01-16T06:48:41;-0.80;99.90
16102;DHT22;56411;52.964;10.540;2024-01-16T06:51:17;-0.80;99.90
16102;DHT22;56411;52.964;10.540;2024-01-16T06:54:39;-0.90;99.90
16102;DHT22;56411;52.964;10.540;2024-01-16T06:57:08;-0.80;99.90
16102;DHT22;56411;52.964;10.540;2024-01-16T06:59:37;-0.80;99.90
16102;DHT22;56411;52.964;10.540;2024-01-16T07:02:04;-0.80;99.90
16102;DHT22;56411;52.964;10.540;2024-01-16T07:04:42;-0.80;99.90
16102;DHT22;56411;52.964;10.540;2024-01-16T07:07:11;-0.80;99.90
16102;DHT22;56411;52.964;10.540;2024-01-16T07:09:39;-0.80;99.90
16102;DHT22;56411;52.964;10.540;2024-01-16T07:12:10;-0.80;99.90
16102;DHT22;56411;52.964;10.540;2024-01-16T07:17:24;-0.80;99.90
16102;DHT22;56411;52.964;10.540;2024-01-16T07:37:21;-0.80;99.90
16102;DHT22;56411;52.964;10.540;2024-01-16T07:40:01;-0.80;99.90
16102;DHT22;56411;52.964;10.540;2024-01-16T07:42:46;-0.80;99.90
16102;DHT22;56411;52.964;10.540;2024-01-16T07:45:23;-0.80;99.90
16102;DHT22;56411;52.964;10.540;2024-01-16T07:47:56;-0.80;99.90
16102;DHT22;56411;52.964;10.540;2024-01-16T07:50:51;-0.80;99.90
16102;DHT22;56411;52.964;10.540;2024-01-16T07:53:33;-0.80;99.90
16102;DHT22;56411;52.964;10.540;2024-01-16T07:56:05;-0.80;99.90
16102;DHT22;56411;52.964;10.540;2024-01-16T07:58:44;-0.80;99.90
16102;DHT22;56411;52.964;10.540;2024-01-16T08:01:38;-0.80;99.90
16102;DHT22;56411;52.964;10.540;2024-01-16T08:07:36;-0.80;99.90
16102;DHT22;56411;52.964;10.540;2024-01-16T08:14:13;-0.70;99.90
16102;DHT22;56411;52.964;10.540;2024-01-16T08:20:22;-0.70;99.90
16102;DHT22;56411;52.964;10.540;2024-01-16T08:30:24;-0.70;99.90
16102;DHT22;56411;52.964;10.540;2024-01-16T08:37:20;-0.70;99.90
16102;DHT22;56411;52.964;10.540;2024-01-16T08:40:28;-0.70;99.90
16102;DHT22;56411;52.964;10.540;2024-01-16T08:43:14;-0.70;99.90
16102;DHT22;56411;52.964;10.540;2024-01-16T08:46:04;-0.70;99.90
16102;DHT22;56411;52.964;10.540;2024-01-16T08:48:42;-0.70;99.90
16102;DHT22;56411;52.964;10.540;2024-01-16T08:51:14;-0.70;99.90
16102;DHT22;56411;52.964;10.540;2024-01-16T08:53:51;-0.70;99.90
16102;DHT22;56411;52.964;10.540;2024-01-16T08:56:24;-0.60;99.90
16102;DHT22;56411;52.964;10.540;2024-01-16T08:59:02;-0.60;99.90
16102;DHT22;56411;52.964;10.540;2024-01-16T09:01:45;-0.60;99.90
16102;DHT22;56411;52.964;10.540;2024-01-16T09:04:15;-0.50;99.90
16102;DHT22;56411;52.964;10.540;2024-01-16T09:09:45;-0.50;99.90
16102;DHT22;56411;52.964;10.540;2024-01-16T09:12:36;-0.40;99.90
16102;DHT22;56411;52.964;10.540;2024-01-16T09:15:07;-0.40;99.90
16102;DHT22;56411;52.964;10.540;2024-01-16T09:17:36;-0.40;99.90
16102;DHT22;56411;52.964;10.540;2024-01-16T09:20:06;-0.30;99.90
16102;DHT22;56411;52.964;10.540;2024-01-16T09:22:34;-0.30;99.90
16102;DHT22;56411;52.964;10.540;2024-01-16T09:25:01;-0.30;99.90
16102;DHT22;56411;52.964;10.540;2024-01-16T09:27:28;-0.20;99.90
16102;DHT22;56411;52.964;10.540;2024-01-16T09:29:56;-0.20;99.90
16102;DHT22;56411;52.964;10.540;2024-01-16T09:32:23;-0.20;99.90
16102;DHT22;56411;52.964;10.540;2024-01-16T09:34:51;-0.20;99.90
16102;DHT22;56411;52.964;10.540;2024-01-16T09:37:19;-0.10;99.90
16102;DHT22;56411;52.964;10.540;2024-01-16T09:39:46;-0.10;99.90
16102;DHT22;56411;52.964;10.540;2024-01-16T09:42:13;-0.10;99.90
16102;DHT22;56411;52.964;10.540;2024-01-16T09:44:41;-0.10;99.90
16102;DHT22;56411;52.964;10.540;2024-01-16T09:47:10;0.00;99.90
16102;DHT22;56411;52.964;10.540;2024-01-16T09:49:38;0.00;99.90
16102;DHT22;56411;52.964;10.540;2024-01-16T09:52:07;0.00;99.90
16102;DHT22;56411;52.964;10.540;2024-01-16T09:54:34;0.00;99.90
16102;DHT22;56411;52.964;10.540;2024-01-16T09:57:03;0.10;99.90
16102;DHT22;56411;52.964;10.540;2024-01-16T09:59:33;0.00;99.90
16102;DHT22;56411;52.964;10.540;2024-01-16T10:02:05;0.00;99.90
16102;DHT22;56411;52.964;10.540;2024-01-16T10:04:33;0.00;99.90
16102;DHT22;56411;52.964;10.540;2024-01-16T10:07:02;0.00;99.90
16102;DHT22;56411;52.964;10.540;2024-01-16T10:09:32;0.00;99.90
16102;DHT22;56411;52.964;10.540;2024-01-16T10:11:59;0.00;99.90
16102;DHT22;56411;52.964;10.540;2024-01-16T10:14:28;0.10;99.90
16102;DHT22;56411;52.964;10.540;2024-01-16T10:16:56;0.10;99.90
16102;DHT22;56411;52.964;10.540;2024-01-16T10:19:25;0.20;99.90
16102;DHT22;56411;52.964;10.540;2024-01-16T10:21:52;0.30;99.90
16102;DHT22;56411;52.964;10.540;2024-01-16T10:24:19;0.30;99.90
16102;DHT22;56411;52.964;10.540;2024-01-16T10:26:58;0.30;99.90
16102;DHT22;56411;52.964;10.540;2024-01-16T10:29:26;0.30;99.90
16102;DHT22;56411;52.964;10.540;2024-01-16T10:31:54;0.30;99.90
16102;DHT22;56411;52.964;10.540;2024-01-16T10:34:21;0.30;99.90
16102;DHT22;56411;52.964;10.540;2024-01-16T10:36:50;0.30;99.90
16102;DHT22;56411;52.964;10.540;2024-01-16T10:39:18;0.30;99.90
16102;DHT22;56411;52.964;10.540;2024-01-16T10:41:55;0.30;99.90
16102;DHT22;56411;52.964;10.540;2024-01-16T10:44:23;0.30;99.90
16102;DHT22;56411;52.964;10.540;2024-01-16T10:46:50;0.30;99.90
16102;DHT22;56411;52.964;10.540;2024-01-16T10:49:17;0.20;99.90
16102;DHT22;56411;52.964;10.540;2024-01-16T10:51:44;0.30;99.90
16102;DHT22;56411;52.964;10.540;2024-01-16T10:54:13;0.20;99.90
16102;DHT22;56411;52.964;10.540;2024-01-16T10:56:44;0.30;99.90
16102;DHT22;56411;52.964;10.540;2024-01-16T10:59:18;0.30;99.90
16102;DHT22;56411;52.964;10.540;2024-01-16T11:01:50;0.30;99.90
16102;DHT22;56411;52.964;10.540;2024-01-16T11:04:18;0.30;99.90
16102;DHT22;56411;52.964;10.540;2024-01-16T11:06:47;0.20;99.90
16102;DHT22;56411;52.964;10.540;2024-01-16T11:09:18;0.20;99.90
16102;DHT22;56411;52.964;10.540;2024-01-16T11:11:50;0.20;99.90
16102;DHT22;56411;52.964;10.540;2024-01-16T11:14:23;0.20;99.90
16102;DHT22;56411;52.964;10.540;2024-01-16T11:16:51;0.20;99.90
16102;DHT22;56411;52.964;10.540;2024-01-16T11:19:20;0.30;99.90
16102;DHT22;56411;52.964;10.540;2024-01-16T11:21:48;0.30;99.90
16102;DHT22;56411;52.964;10.540;2024-01-16T11:24:15;0.30;99.90
16102;DHT22;56411;52.964;10.540;2024-01-16T11:26:42;0.20;99.90
16102;DHT22;56411;52.964;10.540;2024-01-16T11:29:41;0.30;99.90
16102;DHT22;56411;52.964;10.540;2024-01-16T11:32:08;0.30;99.90
16102;DHT22;56411;52.964;10.540;2024-01-16T11:34:53;0.20;99.90
16102;DHT22;56411;52.964;10.540;2024-01-16T11:37:27;0.20;99.90
16102;DHT22;56411;52.964;10.540;2024-01-16T11:40:23;0.20;99.90
16102;DHT22;56411;52.964;10.540;2024-01-16T11:42:53;0.20;99.90
16102;DHT22;56411;52.964;10.540;2024-01-16T11:45:51;0.20;99.90
16102;DHT22;56411;52.964;10.540;2024-01-16T11:48:19;0.10;99.90
16102;DHT22;56411;52.964;10.540;2024-01-16T11:50:46;0.10;99.90
16102;DHT22;56411;52.964;10.540;2024-01-16T11:53:36;0.10;99.90
16102;DHT22;56411;52.964;10.540;2024-01-16T11:56:22;0.10;99.90
16102;DHT22;56411;52.964;10.540;2024-01-16T11:59:01;0.10;99.90
16102;DHT22;56411;52.964;10.540;2024-01-16T12:01:35;0.10;99.90
16102;DHT22;56411;52.964;10.540;2024-01-16T12:04:03;0.10;99.90
16102;DHT22;56411;52.964;10.540;2024-01-16T12:06:30;0.10;99.90
16102;DHT22;56411;52.964;10.540;2024-01-16T12:09:11;0.10;99.90
16102;DHT22;56411;52.964;10.540;2024-01-16T12:11:38;0.10;99.90
16102;DHT22;56411;52.964;10.540;2024-01-16T12:14:05;0.20;99.90
16102;DHT22;56411;52.964;10.540;2024-01-16T12:16:32;0.20;99.90
16102;DHT22;56411;52.964;10.540;2024-01-16T12:19:08;0.20;99.90
16102;DHT22;56411;52.964;10.540;2024-01-16T12:21:38;0.20;99.90
16102;DHT22;56411;52.964;10.540;2024-01-16T12:24:06;0.30;99.90
16102;DHT22;56411;52.964;10.540;2024-01-16T12:26:33;0.30;99.90
16102;DHT22;56411;52.964;10.540;2024-01-16T12:29:00;0.30;99.90
16102;DHT22;56411;52.964;10.540;2024-01-16T12:31:28;0.40;99.90
16102;DHT22;56411;52.964;10.540;2024-01-16T12:34:06;0.30;99.90
16102;DHT22;56411;52.964;10.540;2024-01-16T12:36:34;0.40;99.90
16102;DHT22;56411;52.964;10.540;2024-01-16T12:39:01;0.40;99.90
16102;DHT22;56411;52.964;10.540;2024-01-16T12:41:32;0.40;99.90
16102;DHT22;56411;52.964;10.540;2024-01-16T12:44:00;0.40;99.90
16102;DHT22;56411;52.964;10.540;2024-01-16T12:46:27;0.50;99.90
16102;DHT22;56411;52.964;10.540;2024-01-16T12:49:00;0.50;99.90
16102;DHT22;56411;52.964;10.540;2024-01-16T12:51:29;0.50;99.90
16102;DHT22;56411;52.964;10.540;2024-01-16T12:54:11;0.50;99.90
16102;DHT22;56411;52.964;10.540;2024-01-16T12:56:38;0.50;99.90
16102;DHT22;56411;52.964;10.540;2024-01-16T12:59:09;0.50;99.90
16102;DHT22;56411;52.964;10.540;2024-01-16T13:01:39;0.50;99.90
16102;DHT22;56411;52.964;10.540;2024-01-16T13:04:07;0.50;99.90
16102;DHT22;56411;52.964;10.540;2024-01-16T13:06:36;0.50;99.90
16102;DHT22;56411;52.964;10.540;2024-01-16T13:09:05;0.40;99.90
16102;DHT22;56411;52.964;10.540;2024-01-16T13:11:45;0.40;99.90
16102;DHT22;56411;52.964;10.540;2024-01-16T13:14:13;0.40;99.90
16102;DHT22;56411;52.964;10.540;2024-01-16T13:16:40;0.40;99.90
16102;DHT22;56411;52.964;10.540;2024-01-16T13:19:07;0.40;99.90
16102;DHT22;56411;52.964;10.540;2024-01-16T13:21:38;0.40;99.90
16102;DHT22;56411;52.964;10.540;2024-01-16T13:24:06;0.40;99.90
16102;DHT22;56411;52.964;10.540;2024-01-16T13:26:34;0.40;99.90
16102;DHT22;56411;52.964;10.540;2024-01-16T13:29:01;0.40;99.90
16102;DHT22;56411;52.964;10.540;2024-01-16T13:31:27;0.40;99.90
16102;DHT22;56411;52.964;10.540;2024-01-16T13:33:55;0.40;99.90
16102;DHT22;56411;52.964;10.540;2024-01-16T13:36:22;0.30;99.90
16102;DHT22;56411;52.964;10.540;2024-01-16T13:38:52;0.30;99.90
16102;DHT22;56411;52.964;10.540;2024-01-16T13:41:19;0.40;99.90
16102;DHT22;56411;52.964;10.540;2024-01-16T13:43:46;0.40;99.90
16102;DHT22;56411;52.964;10.540;2024-01-16T13:46:14;0.40;99.90
16102;DHT22;56411;52.964;10.540;2024-01-16T13:48:43;0.40;99.90
16102;DHT22;56411;52.964;10.540;2024-01-16T13:51:11;0.40;99.90
16102;DHT22;56411;52.964;10.540;2024-01-16T13:53:38;0.40;99.90
16102;DHT22;56411;52.964;10.540;2024-01-16T13:56:06;0.40;99.90
16102;DHT22;56411;52.964;10.540;2024-01-16T13:58:33;0.40;99.90
16102;DHT22;56411;52.964;10.540;2024-01-16T14:01:00;0.40;99.90
16102;DHT22;56411;52.964;10.540;2024-01-16T14:03:29;0.40;99.90
16102;DHT22;56411;52.964;10.540;2024-01-16T14:05:56;0.40;99.90
16102;DHT22;56411;52.964;10.540;2024-01-16T14:08:24;0.40;99.90
16102;DHT22;56411;52.964;10.540;2024-01-16T14:10:51;0.30;99.90
16102;DHT22;56411;52.964;10.540;2024-01-16T14:13:20;0.30;99.90
16102;DHT22;56411;52.964;10.540;2024-01-16T14:15:47;0.30;99.90
16102;DHT22;56411;52.964;10.540;2024-01-16T14:18:14;0.40;99.90
16102;DHT22;56411;52.964;10.540;2024-01-16T14:20:41;0.30;99.90
16102;DHT22;56411;52.964;10.540;2024-01-16T14:23:08;0.30;99.90
16102;DHT22;56411;52.964;10.540;2024-01-16T14:25:35;0.30;99.90
16102;DHT22;56411;52.964;10.540;2024-01-16T14:28:03;0.30;99.90
16102;DHT22;56411;52.964;10.540;2024-01-16T14:30:33;0.30;99.90
16102;DHT22;56411;52.964;10.540;2024-01-16T14:33:00;0.30;99.90
16102;DHT22;56411;52.964;10.540;2024-01-16T14:35:28;0.30;99.90
16102;DHT22;56411;52.964;10.540;2024-01-16T14:37:55;0.30;99.90
16102;DHT22;56411;52.964;10.540;2024-01-16T14:40:22;0.30;99.90
16102;DHT22;56411;52.964;10.540;2024-01-16T14:42:54;0.30;99.90
16102;DHT22;56411;52.964;10.540;2024-01-16T14:45:23;0.30;99.90
16102;DHT22;56411;52.964;10.540;2024-01-16T14:47:52;0.30;99.90
16102;DHT22;56411;52.964;10.540;2024-01-16T14:50:20;0.30;99.90
16102;DHT22;56411;52.964;10.540;2024-01-16T14:52:48;0.30;99.90
16102;DHT22;56411;52.964;10.540;2024-01-16T14:55:15;0.30;99.90
16102;DHT22;56411;52.964;10.540;2024-01-16T14:57:43;0.30;99.90
16102;DHT22;56411;52.964;10.540;2024-01-16T15:00:14;0.30;99.90
16102;DHT22;56411;52.964;10.540;2024-01-16T15:02:45;0.20;99.90
16102;DHT22;56411;52.964;10.540;2024-01-16T15:05:15;0.20;99.90
16102;DHT22;56411;52.964;10.540;2024-01-16T15:07:43;0.20;99.90
16102;DHT22;56411;52.964;10.540;2024-01-16T15:10:10;0.20;99.90
16102;DHT22;56411;52.964;10.540;2024-01-16T15:12:38;0.20;99.90
16102;DHT22;56411;52.964;10.540;2024-01-16T15:15:06;0.20;99.90
16102;DHT22;56411;52.964;10.540;2024-01-16T15:17:35;0.20;99.90
16102;DHT22;56411;52.964;10.540;2024-01-16T15:20:02;0.20;99.90
16102;DHT22;56411;52.964;10.540;2024-01-16T15:22:37;0.20;99.90
16102;DHT22;56411;52.964;10.540;2024-01-16T15:25:05;0.20;99.90
16102;DHT22;56411;52.964;10.540;2024-01-16T15:27:32;0.20;99.90
16102;DHT22;56411;52.964;10.540;2024-01-16T15:29:59;0.10;99.90
16102;DHT22;56411;52.964;10.540;2024-01-16T15:32:27;0.20;99.90
16102;DHT22;56411;52.964;10.540;2024-01-16T15:34:54;0.20;99.90
16102;DHT22;56411;52.964;10.540;2024-01-16T15:37:20;0.20;99.90
16102;DHT22;56411;52.964;10.540;2024-01-16T15:39:49;0.20;99.90
16102;DHT22;56411;52.964;10.540;2024-01-16T15:42:16;0.20;99.90
16102;DHT22;56411;52.964;10.540;2024-01-16T15:44:44;0.20;99.90
16102;DHT22;56411;52.964;10.540;2024-01-16T15:47:11;0.10;99.90
16102;DHT22;56411;52.964;10.540;2024-01-16T15:49:38;0.10;99.90
16102;DHT22;56411;52.964;10.540;2024-01-16T15:52:05;0.20;99.90
16102;DHT22;56411;52.964;10.540;2024-01-16T15:54:32;0.10;99.90
16102;DHT22;56411;52.964;10.540;2024-01-16T15:57:01;0.10;99.90
16102;DHT22;56411;52.964;10.540;2024-01-16T15:59:29;0.10;99.90
16102;DHT22;56411;52.964;10.540;2024-01-16T16:01:56;0.10;99.90
16102;DHT22;56411;52.964;10.540;2024-01-16T16:04:23;0.10;99.90
16102;DHT22;56411;52.964;10.540;2024-01-16T16:06:50;0.20;99.90
16102;DHT22;56411;52.964;10.540;2024-01-16T16:09:18;0.10;99.90
16102;DHT22;56411;52.964;10.540;2024-01-16T16:11:46;0.20;99.90
16102;DHT22;56411;52.964;10.540;2024-01-16T16:14:16;0.10;99.90
16102;DHT22;56411;52.964;10.540;2024-01-16T16:16:48;0.10;99.90
16102;DHT22;56411;52.964;10.540;2024-01-16T16:19:15;0.10;99.90
16102;DHT22;56411;52.964;10.540;2024-01-16T16:21:43;0.10;99.90
16102;DHT22;56411;52.964;10.540;2024-01-16T16:24:10;0.10;99.90
16102;DHT22;56411;52.964;10.540;2024-01-16T16:26:39;0.10;99.90
16102;DHT22;56411;52.964;10.540;2024-01-16T16:29:09;0.10;99.90
16102;DHT22;56411;52.964;10.540;2024-01-16T16:31:38;0.10;99.90
16102;DHT22;56411;52.964;10.540;2024-01-16T16:34:07;0.10;99.90
16102;DHT22;56411;52.964;10.540;2024-01-16T16:36:37;0.10;99.90
16102;DHT22;56411;52.964;10.540;2024-01-16T17:06:44;0.00;99.90
16102;DHT22;56411;52.964;10.540;2024-01-16T17:09:14;0.00;99.90
16102;DHT22;56411;52.964;10.540;2024-01-16T17:11:45;0.00;99.90
16102;DHT22;56411;52.964;10.540;2024-01-16T17:14:13;0.00;99.90
16102;DHT22;56411;52.964;10.540;2024-01-16T17:16:41;0.00;99.90
16102;DHT22;56411;52.964;10.540;2024-01-16T17:19:09;0.00;99.90
16102;DHT22;56411;52.964;10.540;2024-01-16T17:21:36;0.00;99.90